Kezdőlap
METAR-TAF:

METAR-TAF

Repülőterek :

Wellington, Új-Zéland

földrajzi szélesség: 41-20S, földrajzi hosszúság: 174-48E, magasság: 12 m

Jelenlegi meteorológiai megfigyelések

A jelentés 23 perccel ezelõtt készült, 17:00 UTC
Északi szél 21 kt
Hőmérséklet 13°C
Páratartalom 72%
Légköri nyomás 1010 hPa
Látótávolság 10 km, vagy több

METAR: NZWN 181700Z AUTO 01021KT 9999 NCD 13/08 Q1010

Idő: 05:23 (17:23 UTC)

Előrejelzés

A jelentés 3 órával és 18 perccel ezelõtt készült, 14:05 UTC
Az előrejelzés 18-én 15 óra UTC és 19-én 18 óra UTC között érvényes
Északi szél 18 kt
Látótávolság 10 km, vagy több
Kevés felhő 2500 lábon
19-én 09 óra UTC és 19-én 11 óra UTC között fokozatosan kialakuló
Északi szél 5 kt
19-én 16 óra UTC és 19-én 18 óra UTC között fokozatosan kialakuló
Déli szél 10 kt

TAF: NZWN 181405Z 1815/1918 01018KT 9999 FEW025 BECMG 1909/1911 01005KT BECMG 1916/1918 18010KT

Meteorológiai megfigyelések és előrejelzések több, mint 4000 repülőtéren (METAR és TAF jelentéseket).

A térképen piros és sárga pontok jelzik az elérhető meteorológiai állomásokat.

Mozgassa az egeret a pont fölött, hogy megjelenjen az állomás neve.

Azután kattintson az időjárási megfigyelések és előrejelzések megtekintéséhez.

A térkép megváltoztatása: kattintson a fekete keresztel jelölt zöld gombra ráközelítéshez, a vonallal jelölt zöld gombra távolításhoz, vagy a zöld nyilakra a szomszédos térképek eléréséhez.


METAR-TAF: